Weather at Kıyıgören Garrison Helipad

Public forecast

Using degrees Celsius for public forecast. Weather courtesy of forecast.io.

Closest aviation weather report (METAR) to Kıyıgören Garrison Helipad

Closest report is Hatay Airport, 14.6 nm (27.0 km) NNW.

2024/06/18 05:50 (retrieved 1 hour ago)

LTDA 180550Z 33003KT 280V020 CAVOK 28/20 Q1010 NOSIG

Closest aviation forecast (TAF) to Kıyıgören Garrison Helipad

Closest forecast is Aleppo International Airport, 41.6 nm (77.1 km) E.

2024/06/18 06:00 (retrieved 50 minutes ago)

TAF OSAP 180500Z 1806/1906 30010KT CAVOK TEMPO 1817/1821 32015KT